sensor_id;sensor_type;location;lat;lon;timestamp;pressure;altitude;pressure_sealevel;temperature;humidity
69524;BME280;56723;42.694;23.286;2023-05-22T08:08:47;94795.94;;;19.13;50.62
69524;BME280;56723;42.694;23.286;2023-05-22T08:11:14;94798.00;;;19.11;51.38
69524;BME280;56723;42.694;23.286;2023-05-22T08:13:41;94804.66;;;19.25;51.77
69524;BME280;56723;42.694;23.286;2023-05-22T08:16:14;94800.00;;;19.38;53.58
69524;BME280;56723;42.694;23.286;2023-05-22T08:18:41;94794.22;;;19.48;49.71
69524;BME280;56723;42.694;23.286;2023-05-22T08:21:08;94797.78;;;19.54;48.82
69524;BME280;56723;42.694;23.286;2023-05-22T08:23:35;94791.41;;;19.61;49.75
69524;BME280;56723;42.694;23.286;2023-05-22T08:26:05;94790.53;;;19.79;49.10
69524;BME280;56723;42.694;23.286;2023-05-22T08:28:34;94786.41;;;19.83;44.29
69524;BME280;56723;42.694;23.286;2023-05-22T08:31:01;94785.94;;;19.75;46.06
69524;BME280;56723;42.694;23.286;2023-05-22T08:33:28;94792.25;;;19.85;47.03
69524;BME280;56723;42.694;23.286;2023-05-22T08:35:55;94797.06;;;20.00;45.47
69524;BME280;56723;42.694;23.286;2023-05-22T08:38:22;94795.66;;;20.09;45.90
69524;BME280;56723;42.694;23.286;2023-05-22T08:40:52;94783.44;;;20.15;45.75
69524;BME280;56723;42.694;23.286;2023-05-22T08:43:21;94795.34;;;20.17;45.62
69524;BME280;56723;42.694;23.286;2023-05-22T08:45:51;94782.72;;;20.31;46.45
69524;BME280;56723;42.694;23.286;2023-05-22T08:48:22;94788.69;;;20.26;42.26
69524;BME280;56723;42.694;23.286;2023-05-22T08:50:53;94791.09;;;20.16;39.90
69524;BME280;56723;42.694;23.286;2023-05-22T08:53:23;94787.00;;;20.20;40.20
69524;BME280;56723;42.694;23.286;2023-05-22T08:55:52;94781.63;;;20.38;39.35
69524;BME280;56723;42.694;23.286;2023-05-22T08:58:20;94778.84;;;20.45;38.65
69524;BME280;56723;42.694;23.286;2023-05-22T09:00:48;94777.25;;;20.44;39.35
69524;BME280;56723;42.694;23.286;2023-05-22T09:03:15;94772.84;;;20.61;40.29
69524;BME280;56723;42.694;23.286;2023-05-22T09:05:44;94775.38;;;20.68;40.43
69524;BME280;56723;42.694;23.286;2023-05-22T09:08:11;94778.84;;;20.57;39.46
69524;BME280;56723;42.694;23.286;2023-05-22T09:10:46;94779.41;;;20.47;41.18
69524;BME280;56723;42.694;23.286;2023-05-22T09:13:24;94783.75;;;20.42;39.08
69524;BME280;56723;42.694;23.286;2023-05-22T09:15:56;94779.19;;;20.49;38.92
69524;BME280;56723;42.694;23.286;2023-05-22T09:18:27;94768.88;;;20.59;38.96
69524;BME280;56723;42.694;23.286;2023-05-22T09:20:59;94763.41;;;20.49;38.38
69524;BME280;56723;42.694;23.286;2023-05-22T09:23:32;94777.69;;;20.41;38.75
69524;BME280;56723;42.694;23.286;2023-05-22T09:26:00;94766.50;;;20.34;37.99
69524;BME280;56723;42.694;23.286;2023-05-22T09:28:35;94776.13;;;20.40;38.14
69524;BME280;56723;42.694;23.286;2023-05-22T09:31:03;94766.16;;;20.30;38.85
69524;BME280;56723;42.694;23.286;2023-05-22T09:33:30;94770.59;;;20.53;40.31
69524;BME280;56723;42.694;23.286;2023-05-22T09:35:58;94777.31;;;20.61;40.76
69524;BME280;56723;42.694;23.286;2023-05-22T09:38:27;94779.94;;;20.61;41.41
69524;BME280;56723;42.694;23.286;2023-05-22T09:40:55;94772.44;;;20.41;42.05
69524;BME280;56723;42.694;23.286;2023-05-22T09:43:23;94777.13;;;20.27;42.95
69524;BME280;56723;42.694;23.286;2023-05-22T09:45:59;94782.84;;;20.24;42.39
69524;BME280;56723;42.694;23.286;2023-05-22T09:48:26;94769.38;;;20.21;42.23
69524;BME280;56723;42.694;23.286;2023-05-22T09:50:53;94774.72;;;20.26;43.75
69524;BME280;56723;42.694;23.286;2023-05-22T09:53:25;94776.69;;;20.19;42.99
69524;BME280;56723;42.694;23.286;2023-05-22T09:55:55;94770.72;;;20.23;44.36
69524;BME280;56723;42.694;23.286;2023-05-22T09:58:29;94774.63;;;20.32;44.12
69524;BME280;56723;42.694;23.286;2023-05-22T10:00:56;94775.78;;;20.36;45.49
69524;BME280;56723;42.694;23.286;2023-05-22T10:03:25;94779.56;;;20.41;44.25
69524;BME280;56723;42.694;23.286;2023-05-22T10:05:54;94782.66;;;20.37;44.60
69524;BME280;56723;42.694;23.286;2023-05-22T10:08:26;94782.97;;;20.18;44.67
69524;BME280;56723;42.694;23.286;2023-05-22T10:10:54;94786.41;;;19.95;45.00
69524;BME280;56723;42.694;23.286;2023-05-22T10:13:22;94787.88;;;19.91;45.68
69524;BME280;56723;42.694;23.286;2023-05-22T10:15:50;94788.78;;;19.61;47.31
69524;BME280;56723;42.694;23.286;2023-05-22T10:18:17;94780.19;;;19.54;48.01
69524;BME280;56723;42.694;23.286;2023-05-22T10:20:44;94788.78;;;19.61;48.20
69524;BME280;56723;42.694;23.286;2023-05-22T10:23:16;94785.22;;;19.67;47.59
69524;BME280;56723;42.694;23.286;2023-05-22T10:25:44;94785.28;;;19.49;48.75
69524;BME280;56723;42.694;23.286;2023-05-22T10:28:18;94785.50;;;19.36;47.70
69524;BME280;56723;42.694;23.286;2023-05-22T10:31:08;94784.00;;;19.28;47.84
69524;BME280;56723;42.694;23.286;2023-05-22T10:34:19;94783.59;;;19.13;48.66
69524;BME280;56723;42.694;23.286;2023-05-22T10:37:15;94787.50;;;19.11;48.99
69524;BME280;56723;42.694;23.286;2023-05-22T10:40:10;94792.38;;;19.07;50.59
69524;BME280;56723;42.694;23.286;2023-05-22T10:42:39;94796.28;;;18.86;52.55
69524;BME280;56723;42.694;23.286;2023-05-22T10:45:06;94804.09;;;18.75;54.83
69524;BME280;56723;42.694;23.286;2023-05-22T10:47:34;94814.91;;;18.66;57.81
69524;BME280;56723;42.694;23.286;2023-05-22T10:50:09;94820.34;;;18.47;60.16
69524;BME280;56723;42.694;23.286;2023-05-22T10:52:38;94822.31;;;18.33;63.56
69524;BME280;56723;42.694;23.286;2023-05-22T10:55:07;94815.56;;;18.19;68.76
69524;BME280;56723;42.694;23.286;2023-05-22T10:57:38;94801.78;;;18.05;69.75
69524;BME280;56723;42.694;23.286;2023-05-22T11:00:10;94806.25;;;18.05;75.48
69524;BME280;56723;42.694;23.286;2023-05-22T11:02:41;94803.69;;;17.98;68.19
69524;BME280;56723;42.694;23.286;2023-05-22T11:05:31;94795.00;;;17.79;73.55
69524;BME280;56723;42.694;23.286;2023-05-22T11:13:18;94789.31;;;18.00;64.79
69524;BME280;56723;42.694;23.286;2023-05-22T11:15:45;94786.44;;;18.27;66.20
69524;BME280;56723;42.694;23.286;2023-05-22T11:18:12;94776.00;;;18.57;65.10
69524;BME280;56723;42.694;23.286;2023-05-22T11:20:42;94778.13;;;18.85;62.13
69524;BME280;56723;42.694;23.286;2023-05-22T11:23:10;94778.81;;;19.10;61.24
69524;BME280;56723;42.694;23.286;2023-05-22T11:25:39;94776.16;;;18.80;66.29
69524;BME280;56723;42.694;23.286;2023-05-22T11:28:07;94779.09;;;17.99;68.56
69524;BME280;56723;42.694;23.286;2023-05-22T11:30:36;94775.25;;;17.77;68.74
69524;BME280;56723;42.694;23.286;2023-05-22T11:33:04;94786.25;;;17.60;66.48
69524;BME280;56723;42.694;23.286;2023-05-22T11:35:32;94800.44;;;17.78;67.94
69524;BME280;56723;42.694;23.286;2023-05-22T11:38:03;94833.19;;;17.30;74.07
69524;BME280;56723;42.694;23.286;2023-05-22T11:56:40;94855.66;;;15.30;83.93
69524;BME280;56723;42.694;23.286;2023-05-22T11:59:07;94852.81;;;15.12;86.81
69524;BME280;56723;42.694;23.286;2023-05-22T12:01:34;94854.03;;;15.16;88.30
69524;BME280;56723;42.694;23.286;2023-05-22T12:04:03;94848.19;;;15.01;82.42
69524;BME280;56723;42.694;23.286;2023-05-22T12:06:30;94844.56;;;15.02;81.93
69524;BME280;56723;42.694;23.286;2023-05-22T12:09:00;94851.19;;;15.11;82.06
69524;BME280;56723;42.694;23.286;2023-05-22T12:11:27;94840.53;;;15.06;79.77
69524;BME280;56723;42.694;23.286;2023-05-22T12:14:01;94842.78;;;15.15;82.40
69524;BME280;56723;42.694;23.286;2023-05-22T12:16:33;94840.78;;;15.24;79.31
69524;BME280;56723;42.694;23.286;2023-05-22T12:19:09;94836.19;;;15.33;77.86
69524;BME280;56723;42.694;23.286;2023-05-22T12:21:37;94826.53;;;15.20;78.32
69524;BME280;56723;42.694;23.286;2023-05-22T12:24:05;94834.31;;;15.07;80.80
69524;BME280;56723;42.694;23.286;2023-05-22T12:26:32;94832.72;;;15.06;83.96
69524;BME280;56723;42.694;23.286;2023-05-22T12:29:00;94824.53;;;15.15;79.32
69524;BME280;56723;42.694;23.286;2023-05-22T12:31:27;94817.91;;;15.26;83.91
69524;BME280;56723;42.694;23.286;2023-05-22T12:33:56;94829.16;;;15.46;81.57
69524;BME280;56723;42.694;23.286;2023-05-22T12:36:52;94826.22;;;15.69;83.23
69524;BME280;56723;42.694;23.286;2023-05-22T12:39:19;94815.53;;;15.77;80.96
69524;BME280;56723;42.694;23.286;2023-05-22T12:41:47;94817.97;;;15.92;82.62
69524;BME280;56723;42.694;23.286;2023-05-22T12:44:14;94820.97;;;16.09;80.84
69524;BME280;56723;42.694;23.286;2023-05-22T12:46:42;94825.34;;;16.21;80.21
69524;BME280;56723;42.694;23.286;2023-05-22T12:49:09;94807.66;;;16.30;78.83
69524;BME280;56723;42.694;23.286;2023-05-22T12:51:36;94807.22;;;16.33;79.17
69524;BME280;56723;42.694;23.286;2023-05-22T12:54:03;94816.66;;;16.34;78.60
69524;BME280;56723;42.694;23.286;2023-05-22T12:56:31;94813.44;;;16.39;77.64
69524;BME280;56723;42.694;23.286;2023-05-22T12:58:58;94810.63;;;16.40;77.72
69524;BME280;56723;42.694;23.286;2023-05-22T13:01:25;94813.22;;;16.47;82.11
69524;BME280;56723;42.694;23.286;2023-05-22T13:03:52;94817.44;;;16.48;79.36
69524;BME280;56723;42.694;23.286;2023-05-22T13:06:19;94821.84;;;16.54;78.50
69524;BME280;56723;42.694;23.286;2023-05-22T13:08:46;94815.38;;;16.56;76.88
69524;BME280;56723;42.694;23.286;2023-05-22T13:11:14;94810.97;;;16.64;79.97
69524;BME280;56723;42.694;23.286;2023-05-22T13:13:41;94793.00;;;16.74;77.42
69524;BME280;56723;42.694;23.286;2023-05-22T13:16:08;94792.75;;;16.88;77.19
69524;BME280;56723;42.694;23.286;2023-05-22T13:18:36;94795.47;;;17.07;78.31
69524;BME280;56723;42.694;23.286;2023-05-22T13:21:03;94788.59;;;17.12;73.12
69524;BME280;56723;42.694;23.286;2023-05-22T13:23:30;94792.19;;;17.18;72.44
69524;BME280;56723;42.694;23.286;2023-05-22T13:25:57;94774.88;;;17.17;69.17
69524;BME280;56723;42.694;23.286;2023-05-22T13:28:26;94773.84;;;17.18;70.39
69524;BME280;56723;42.694;23.286;2023-05-22T13:30:54;94757.72;;;17.21;70.53
69524;BME280;56723;42.694;23.286;2023-05-22T13:33:21;94760.66;;;17.31;70.56
69524;BME280;56723;42.694;23.286;2023-05-22T13:35:48;94765.78;;;17.44;70.24
69524;BME280;56723;42.694;23.286;2023-05-22T13:38:15;94757.53;;;17.72;67.98
69524;BME280;56723;42.694;23.286;2023-05-22T13:40:42;94759.69;;;18.00;69.30
69524;BME280;56723;42.694;23.286;2023-05-22T13:43:11;94757.81;;;18.25;66.27
69524;BME280;56723;42.694;23.286;2023-05-22T13:45:41;94748.50;;;18.48;61.80
69524;BME280;56723;42.694;23.286;2023-05-22T13:48:08;94741.47;;;18.78;57.91
69524;BME280;56723;42.694;23.286;2023-05-22T13:50:35;94743.97;;;19.15;54.86
69524;BME280;56723;42.694;23.286;2023-05-22T13:53:02;94743.25;;;19.37;52.99
69524;BME280;56723;42.694;23.286;2023-05-22T13:55:29;94739.63;;;19.50;50.41
69524;BME280;56723;42.694;23.286;2023-05-22T13:57:56;94742.16;;;19.68;50.49
69524;BME280;56723;42.694;23.286;2023-05-22T14:00:23;94733.69;;;19.90;52.14
69524;BME280;56723;42.694;23.286;2023-05-22T14:02:50;94734.84;;;19.94;49.66
69524;BME280;56723;42.694;23.286;2023-05-22T14:05:18;94738.03;;;19.73;48.58
69524;BME280;56723;42.694;23.286;2023-05-22T14:07:46;94731.53;;;19.75;50.90
69524;BME280;56723;42.694;23.286;2023-05-22T14:10:14;94732.22;;;19.94;53.79
69524;BME280;56723;42.694;23.286;2023-05-22T14:12:41;94724.53;;;20.04;53.02
69524;BME280;56723;42.694;23.286;2023-05-22T14:15:09;94725.69;;;20.08;49.70
69524;BME280;56723;42.694;23.286;2023-05-22T14:17:37;94726.03;;;20.12;50.32
69524;BME280;56723;42.694;23.286;2023-05-22T14:20:04;94728.28;;;20.31;48.75
69524;BME280;56723;42.694;23.286;2023-05-22T14:22:32;94726.66;;;20.54;47.10
69524;BME280;56723;42.694;23.286;2023-05-22T14:25:20;94725.56;;;20.78;46.26
69524;BME280;56723;42.694;23.286;2023-05-22T14:27:47;94727.63;;;20.76;44.71
69524;BME280;56723;42.694;23.286;2023-05-22T14:30:14;94735.78;;;20.91;45.24
69524;BME280;56723;42.694;23.286;2023-05-22T14:32:41;94741.69;;;20.98;46.43
69524;BME280;56723;42.694;23.286;2023-05-22T14:35:08;94737.38;;;20.92;46.12
69524;BME280;56723;42.694;23.286;2023-05-22T14:37:36;94728.06;;;20.73;45.20
69524;BME280;56723;42.694;23.286;2023-05-22T14:40:03;94727.78;;;20.58;45.22
69524;BME280;56723;42.694;23.286;2023-05-22T14:42:30;94736.88;;;20.38;45.13
69524;BME280;56723;42.694;23.286;2023-05-22T14:44:58;94746.50;;;20.21;46.24
69524;BME280;56723;42.694;23.286;2023-05-22T14:47:25;94747.53;;;19.97;46.95
69524;BME280;56723;42.694;23.286;2023-05-22T14:49:52;94744.34;;;19.83;47.31
69524;BME280;56723;42.694;23.286;2023-05-22T14:52:28;94738.19;;;19.66;46.98
69524;BME280;56723;42.694;23.286;2023-05-22T14:54:55;94747.19;;;19.58;46.84
69524;BME280;56723;42.694;23.286;2023-05-22T14:57:22;94748.88;;;19.53;45.85
69524;BME280;56723;42.694;23.286;2023-05-22T14:59:49;94758.56;;;19.41;48.96
69524;BME280;56723;42.694;23.286;2023-05-22T15:02:16;94763.88;;;19.22;50.93
69524;BME280;56723;42.694;23.286;2023-05-22T15:04:45;94765.84;;;18.97;55.56
69524;BME280;56723;42.694;23.286;2023-05-22T15:07:12;94760.56;;;18.85;56.00
69524;BME280;56723;42.694;23.286;2023-05-22T15:09:39;94762.47;;;18.78;57.89
69524;BME280;56723;42.694;23.286;2023-05-22T15:12:07;94762.91;;;18.75;58.21
69524;BME280;56723;42.694;23.286;2023-05-22T15:14:34;94763.00;;;18.68;59.60
69524;BME280;56723;42.694;23.286;2023-05-22T15:17:01;94764.31;;;18.59;58.54
69524;BME280;56723;42.694;23.286;2023-05-22T15:19:28;94761.66;;;18.41;58.74
69524;BME280;56723;42.694;23.286;2023-05-22T15:21:55;94761.75;;;18.34;59.72
69524;BME280;56723;42.694;23.286;2023-05-22T15:24:31;94767.06;;;18.28;59.77
69524;BME280;56723;42.694;23.286;2023-05-22T15:26:58;94764.22;;;18.11;60.46
69524;BME280;56723;42.694;23.286;2023-05-22T15:29:25;94763.78;;;17.96;62.44
69524;BME280;56723;42.694;23.286;2023-05-22T15:31:54;94776.44;;;17.81;62.99
69524;BME280;56723;42.694;23.286;2023-05-22T15:34:21;94779.72;;;17.70;64.96
69524;BME280;56723;42.694;23.286;2023-05-22T15:36:48;94778.19;;;17.62;67.55
69524;BME280;56723;42.694;23.286;2023-05-22T15:39:15;94768.34;;;17.57;69.17
69524;BME280;56723;42.694;23.286;2023-05-22T15:41:42;94769.22;;;17.45;68.93
69524;BME280;56723;42.694;23.286;2023-05-22T15:44:23;94780.56;;;17.39;70.61
69524;BME280;56723;42.694;23.286;2023-05-22T15:46:51;94775.16;;;17.34;71.37
69524;BME280;56723;42.694;23.286;2023-05-22T15:49:18;94779.28;;;17.23;72.76
69524;BME280;56723;42.694;23.286;2023-05-22T15:51:45;94785.66;;;17.27;74.52
69524;BME280;56723;42.694;23.286;2023-05-22T15:54:12;94793.53;;;17.27;75.45
69524;BME280;56723;42.694;23.286;2023-05-22T15:56:39;94797.38;;;17.24;75.81
69524;BME280;56723;42.694;23.286;2023-05-22T15:59:06;94792.50;;;17.28;76.87
69524;BME280;56723;42.694;23.286;2023-05-22T16:01:33;94790.47;;;17.30;75.81
69524;BME280;56723;42.694;23.286;2023-05-22T16:04:01;94790.84;;;17.40;75.25
69524;BME280;56723;42.694;23.286;2023-05-22T16:06:28;94778.22;;;17.55;75.05
69524;BME280;56723;42.694;23.286;2023-05-22T16:08:55;94770.88;;;17.71;74.74
69524;BME280;56723;42.694;23.286;2023-05-22T16:11:22;94771.47;;;17.41;76.70
69524;BME280;56723;42.694;23.286;2023-05-22T16:13:49;94772.97;;;17.55;75.83
69524;BME280;56723;42.694;23.286;2023-05-22T16:16:16;94767.09;;;17.04;77.04
69524;BME280;56723;42.694;23.286;2023-05-22T16:18:43;94764.50;;;16.97;77.39
69524;BME280;56723;42.694;23.286;2023-05-22T16:21:10;94755.81;;;16.58;76.75
69524;BME280;56723;42.694;23.286;2023-05-22T16:23:37;94747.66;;;16.42;78.04
69524;BME280;56723;42.694;23.286;2023-05-22T16:26:04;94749.66;;;16.46;78.26
69524;BME280;56723;42.694;23.286;2023-05-22T16:28:31;94742.63;;;16.40;79.42
69524;BME280;56723;42.694;23.286;2023-05-22T16:30:58;94743.63;;;16.46;79.19
69524;BME280;56723;42.694;23.286;2023-05-22T16:33:26;94748.19;;;16.64;81.17
69524;BME280;56723;42.694;23.286;2023-05-22T16:35:53;94748.59;;;16.67;80.00
